createdAt,value
2019-01-13T00:00:11.748Z,-3.18
2019-01-13T00:02:36.934Z,-3.19
2019-01-13T00:05:06.187Z,-3.22
2019-01-13T00:07:32.112Z,-3.22
2019-01-13T00:09:58.248Z,-3.22
2019-01-13T00:12:24.512Z,-3.25
2019-01-13T00:14:50.439Z,-3.27
2019-01-13T00:17:16.765Z,-3.27
2019-01-13T00:19:42.987Z,-3.27
2019-01-13T00:22:09.121Z,-3.29
2019-01-13T00:24:35.112Z,-3.29
2019-01-13T00:27:01.265Z,-3.32
2019-01-13T00:29:27.178Z,-3.33
2019-01-13T00:31:53.210Z,-3.35
2019-01-13T00:34:19.271Z,-3.37
2019-01-13T00:36:45.187Z,-3.39
2019-01-13T00:39:11.435Z,-3.42
2019-01-13T00:41:37.833Z,-3.43
2019-01-13T00:44:03.941Z,-3.45
2019-01-13T00:46:29.920Z,-3.47
2019-01-13T00:48:56.104Z,-3.49
2019-01-13T00:51:22.131Z,-3.50
2019-01-13T00:53:48.050Z,-3.51
2019-01-13T00:56:14.272Z,-3.53
2019-01-13T00:58:40.271Z,-3.55
2019-01-13T01:01:06.386Z,-3.57
2019-01-13T01:03:32.504Z,-3.61
2019-01-13T01:05:58.775Z,-3.63
2019-01-13T01:08:24.844Z,-3.64
2019-01-13T01:10:50.968Z,-3.66
2019-01-13T01:13:16.886Z,-3.65
2019-01-13T01:15:42.925Z,-3.65
2019-01-13T01:18:09.274Z,-4.02
2019-01-13T01:20:35.308Z,-3.70
2019-01-13T01:23:01.471Z,-3.73
2019-01-13T01:25:27.612Z,-3.76
2019-01-13T01:27:53.561Z,-3.82
2019-01-13T01:30:19.892Z,-3.84
2019-01-13T01:32:46.189Z,-3.87
2019-01-13T01:35:12.420Z,-3.89
2019-01-13T01:37:38.571Z,-3.91
2019-01-13T01:40:13.386Z,-3.92
2019-01-13T01:42:39.543Z,-3.95
2019-01-13T01:45:08.054Z,-3.96
2019-01-13T01:47:34.418Z,-3.97
2019-01-13T01:50:00.463Z,-3.98
2019-01-13T01:52:26.470Z,-4.00
2019-01-13T01:54:52.934Z,-4.00
2019-01-13T01:57:19.081Z,-4.01
2019-01-13T01:59:44.992Z,-4.01
2019-01-13T02:02:11.266Z,-4.02
2019-01-13T02:04:37.262Z,-4.02
2019-01-13T02:07:03.409Z,-4.05
2019-01-13T02:09:29.716Z,-4.07
2019-01-13T02:11:55.708Z,-4.09
2019-01-13T02:14:21.654Z,-4.12
2019-01-13T02:16:47.836Z,-4.15
2019-01-13T02:19:13.940Z,-4.18
2019-01-13T02:21:40.075Z,-4.20
2019-01-13T02:24:06.341Z,-4.22
2019-01-13T02:26:32.477Z,-4.24
2019-01-13T02:28:58.488Z,-4.26
2019-01-13T02:31:24.644Z,-4.28
2019-01-13T02:33:50.694Z,-4.33
2019-01-13T02:36:16.707Z,-4.38
2019-01-13T02:38:43.023Z,-4.42
2019-01-13T02:41:09.050Z,-4.46
2019-01-13T02:43:35.078Z,-4.49
2019-01-13T02:46:01.310Z,-4.48
2019-01-13T02:48:27.244Z,-4.41
2019-01-13T02:50:53.278Z,-4.38
2019-01-13T02:53:19.329Z,-4.39
2019-01-13T02:55:45.287Z,-4.45
2019-01-13T02:58:11.400Z,-4.44
2019-01-13T03:00:37.761Z,-4.45
2019-01-13T03:03:03.995Z,-4.49
2019-01-13T03:05:29.992Z,-4.53
2019-01-13T03:07:56.183Z,-4.63
2019-01-13T03:10:22.504Z,-4.67
2019-01-13T03:12:48.630Z,-4.67
2019-01-13T03:15:19.457Z,-4.70
2019-01-13T03:17:45.939Z,-4.73
2019-01-13T03:20:12.479Z,-4.76
2019-01-13T03:22:38.667Z,-4.80
2019-01-13T03:25:12.037Z,-4.83
2019-01-13T03:27:38.256Z,-4.87
2019-01-13T03:30:11.017Z,-4.90
2019-01-13T03:32:37.061Z,-4.94
2019-01-13T03:35:05.568Z,-4.99
2019-01-13T03:37:31.701Z,-4.98
2019-01-13T03:39:57.846Z,-5.02
2019-01-13T03:42:23.981Z,-5.07
2019-01-13T03:44:50.154Z,-5.11
2019-01-13T03:47:16.289Z,-5.19
2019-01-13T03:49:42.315Z,-5.20
2019-01-13T03:52:08.583Z,-5.24
2019-01-13T03:54:34.503Z,-5.24
2019-01-13T03:57:00.615Z,-5.25
2019-01-13T03:59:26.899Z,-5.23
2019-01-13T04:01:52.822Z,-5.27
2019-01-13T04:04:18.837Z,-5.27
2019-01-13T04:06:44.927Z,-5.26
2019-01-13T04:09:10.862Z,-5.27
2019-01-13T04:11:36.862Z,-5.27
2019-01-13T04:14:03.260Z,-5.29
2019-01-13T04:16:29.348Z,-5.38
2019-01-13T04:18:55.311Z,-5.40
2019-01-13T04:21:21.617Z,-5.40
2019-01-13T04:23:47.654Z,-5.46
2019-01-13T04:26:13.609Z,-5.51
2019-01-13T04:28:39.860Z,-5.51
2019-01-13T04:31:05.861Z,-5.54
2019-01-13T04:33:31.797Z,-5.54
2019-01-13T04:35:57.974Z,-5.54
2019-01-13T04:38:23.978Z,-5.57
2019-01-13T04:40:50.020Z,-5.57
2019-01-13T04:43:16.336Z,-5.61
2019-01-13T04:45:42.367Z,-5.68
2019-01-13T04:48:08.409Z,-5.68
2019-01-13T04:50:34.717Z,-5.72
2019-01-13T04:53:00.743Z,-5.72
2019-01-13T04:55:26.765Z,-5.72
2019-01-13T04:57:53.054Z,-5.74
2019-01-13T05:00:20.874Z,-5.75
2019-01-13T05:02:46.912Z,-5.79
2019-01-13T05:05:13.204Z,-5.90
2019-01-13T05:07:39.352Z,-5.90
2019-01-13T05:10:09.081Z,-5.95
2019-01-13T05:12:35.346Z,-5.99
2019-01-13T05:15:01.504Z,-6.06
2019-01-13T05:17:27.516Z,-6.10
2019-01-13T05:19:53.687Z,-6.10
2019-01-13T05:22:19.831Z,-6.09
2019-01-13T05:24:45.719Z,-6.11
2019-01-13T05:27:11.904Z,-6.12
2019-01-13T05:29:37.817Z,-6.15
2019-01-13T05:32:03.949Z,-6.17
2019-01-13T05:34:30.137Z,-6.18
2019-01-13T05:36:56.042Z,-6.20
2019-01-13T05:39:21.965Z,-6.18
2019-01-13T05:41:47.990Z,-6.20
2019-01-13T05:44:14.062Z,-6.22
2019-01-13T05:46:40.060Z,-6.26
2019-01-13T05:49:06.212Z,-6.25
2019-01-13T05:51:32.150Z,-6.26
2019-01-13T05:53:58.267Z,-6.26
2019-01-13T05:56:24.442Z,-6.32
2019-01-13T05:58:50.348Z,-6.43
2019-01-13T06:01:16.378Z,-6.49
2019-01-13T06:03:42.473Z,-6.52
2019-01-13T06:06:08.472Z,-6.54
2019-01-13T06:08:34.407Z,-6.55
2019-01-13T06:11:00.495Z,-6.55
2019-01-13T06:13:26.437Z,-6.55
2019-01-13T06:15:52.420Z,-6.53
2019-01-13T06:18:18.425Z,-6.50
2019-01-13T06:20:44.569Z,-6.52
2019-01-13T06:23:10.459Z,-6.52
2019-01-13T06:25:36.669Z,-6.53
2019-01-13T06:28:02.799Z,-6.49
2019-01-13T06:30:28.925Z,-6.49
2019-01-13T06:32:54.983Z,-6.50
2019-01-13T06:35:21.176Z,-6.50
2019-01-13T06:37:47.277Z,-6.53
2019-01-13T06:40:15.744Z,-6.53
2019-01-13T06:42:41.792Z,-6.53
2019-01-13T06:45:10.486Z,-6.54
2019-01-13T06:47:36.567Z,-6.52
2019-01-13T06:50:05.733Z,-6.50
2019-01-13T06:52:31.665Z,-6.49
2019-01-13T06:54:57.978Z,-6.49
2019-01-13T06:57:24.016Z,-6.46
2019-01-13T06:59:50.016Z,-6.46
2019-01-13T07:02:16.114Z,-6.45
2019-01-13T07:04:42.025Z,-6.48
2019-01-13T07:07:08.153Z,-6.48
2019-01-13T07:09:34.508Z,-6.48
2019-01-13T07:12:00.678Z,-6.57
2019-01-13T07:14:26.594Z,-6.54
2019-01-13T07:16:52.656Z,-6.54
2019-01-13T07:19:18.711Z,-6.58
2019-01-13T07:21:44.634Z,-6.59
2019-01-13T07:24:10.790Z,-6.59
2019-01-13T07:26:36.822Z,-6.58
2019-01-13T07:29:03.034Z,-6.55
2019-01-13T07:31:29.428Z,-6.55
2019-01-13T07:33:55.488Z,-6.55
2019-01-13T07:36:21.430Z,-6.51
2019-01-13T07:38:47.471Z,-6.50
2019-01-13T07:41:13.415Z,-6.50
2019-01-13T07:43:39.342Z,-6.50
2019-01-13T07:46:05.523Z,-6.47
2019-01-13T07:48:31.462Z,-6.48
2019-01-13T07:50:57.463Z,-6.48
2019-01-13T07:53:23.640Z,-6.53
2019-01-13T07:55:49.653Z,-6.54
2019-01-13T07:58:15.688Z,-6.54
2019-01-13T08:00:42.001Z,-6.53
2019-01-13T08:03:08.111Z,-6.50
2019-01-13T08:05:34.103Z,-6.46
2019-01-13T08:08:00.346Z,-6.42
2019-01-13T08:10:26.488Z,-6.44
2019-01-13T08:12:52.500Z,-6.42
2019-01-13T08:15:19.940Z,-6.43
2019-01-13T08:17:46.031Z,-6.40
2019-01-13T08:20:21.419Z,-6.41
2019-01-13T08:22:47.440Z,-6.41
2019-01-13T08:25:13.692Z,-6.41
2019-01-13T08:27:39.697Z,-6.41
2019-01-13T08:30:09.392Z,-6.43
2019-01-13T08:32:35.335Z,-6.43
2019-01-13T08:35:01.472Z,-6.43
2019-01-13T08:37:27.490Z,-6.42
2019-01-13T08:39:53.452Z,-6.42
2019-01-13T08:42:19.533Z,-6.37
2019-01-13T08:44:45.580Z,-6.35
2019-01-13T08:47:11.592Z,-6.35
2019-01-13T08:49:37.688Z,-6.35
2019-01-13T08:52:03.848Z,-6.40
2019-01-13T08:54:29.859Z,-6.45
2019-01-13T08:56:55.998Z,-6.47
2019-01-13T08:59:22.146Z,-6.47
2019-01-13T09:01:48.225Z,-6.43
2019-01-13T09:04:14.299Z,-6.43
2019-01-13T09:06:40.246Z,-6.41
2019-01-13T09:09:07.792Z,-6.41
2019-01-13T09:11:33.900Z,-6.46
2019-01-13T09:13:59.929Z,-6.46
2019-01-13T09:16:26.050Z,-6.53
2019-01-13T09:18:52.129Z,-6.54
2019-01-13T09:21:18.045Z,-6.55
2019-01-13T09:23:44.042Z,-6.61
2019-01-13T09:26:10.233Z,-6.47
2019-01-13T09:28:36.228Z,-6.43
2019-01-13T09:31:02.374Z,-6.42
2019-01-13T09:33:28.702Z,-6.42
2019-01-13T09:35:54.750Z,-6.41
2019-01-13T09:38:20.772Z,-6.42
2019-01-13T09:40:47.034Z,-6.46
2019-01-13T09:43:12.980Z,-6.41
2019-01-13T09:45:38.878Z,-6.40
2019-01-13T09:48:05.078Z,-6.34
2019-01-13T09:50:31.113Z,-6.29
2019-01-13T09:52:57.225Z,-6.25
2019-01-13T09:55:23.829Z,-6.25
2019-01-13T09:57:49.814Z,-6.22
2019-01-13T10:00:30.944Z,-6.22
2019-01-13T10:02:57.084Z,-6.18
2019-01-13T10:05:23.204Z,-6.15
2019-01-13T10:07:49.388Z,-6.11
2019-01-13T10:10:15.432Z,-6.11
2019-01-13T10:12:41.558Z,-6.09
2019-01-13T10:15:21.695Z,-6.07
2019-01-13T10:17:47.707Z,-6.07
2019-01-13T10:20:14.544Z,-6.02
2019-01-13T10:22:40.848Z,-6.02
2019-01-13T10:25:08.031Z,-5.99
2019-01-13T10:27:34.149Z,-5.99
2019-01-13T10:30:00.488Z,-5.98
2019-01-13T10:32:26.422Z,-5.98
2019-01-13T10:34:52.367Z,-5.97
2019-01-13T10:37:18.564Z,-5.96
2019-01-13T10:39:44.500Z,-5.97
2019-01-13T10:42:10.431Z,-5.97
2019-01-13T10:44:36.518Z,-5.96
2019-01-13T10:47:02.628Z,-5.94
2019-01-13T10:49:28.692Z,-5.92
2019-01-13T10:51:54.942Z,-5.90
2019-01-13T10:54:20.862Z,-5.84
2019-01-13T10:56:46.894Z,-5.84
2019-01-13T10:59:13.152Z,-5.85
2019-01-13T11:01:39.258Z,-5.85
2019-01-13T11:04:05.397Z,-5.78
2019-01-13T11:06:31.711Z,-5.78
2019-01-13T11:08:57.738Z,-5.78
2019-01-13T11:11:23.868Z,-5.78
2019-01-13T11:13:49.959Z,-5.75
2019-01-13T11:16:16.114Z,-5.73
2019-01-13T11:18:42.182Z,-5.72
2019-01-13T11:21:08.533Z,-5.69
2019-01-13T11:23:34.479Z,-5.65
2019-01-13T11:26:00.516Z,-5.62
2019-01-13T11:28:27.053Z,-5.57
2019-01-13T11:30:53.102Z,-5.57
2019-01-13T11:33:19.109Z,-5.57
2019-01-13T11:35:45.244Z,-5.54
2019-01-13T11:38:11.149Z,-5.54
2019-01-13T11:40:37.586Z,-5.53
2019-01-13T11:43:04.037Z,-5.45
2019-01-13T11:45:30.084Z,-5.43
2019-01-13T11:47:56.020Z,-5.43
2019-01-13T11:50:23.917Z,-5.41
2019-01-13T11:52:50.066Z,-5.40
2019-01-13T11:55:16.269Z,-5.38
2019-01-13T11:57:42.767Z,-5.37
2019-01-13T12:00:24.122Z,-5.30
2019-01-13T12:02:50.397Z,-5.30
2019-01-13T12:05:16.526Z,-5.23
2019-01-13T12:07:43.240Z,-5.21
2019-01-13T12:10:13.991Z,-5.21
2019-01-13T12:12:40.226Z,-5.12
2019-01-13T12:15:09.644Z,-5.14
2019-01-13T12:17:35.734Z,-5.14
2019-01-13T12:20:05.291Z,-5.06
2019-01-13T12:22:31.201Z,-5.05
2019-01-13T12:24:57.281Z,-5.05
2019-01-13T12:27:23.217Z,-4.99
2019-01-13T12:29:49.102Z,-4.97
2019-01-13T12:32:15.179Z,-4.93
2019-01-13T12:34:41.231Z,-4.88
2019-01-13T12:37:08.510Z,-4.88
2019-01-13T12:39:34.805Z,-4.83
2019-01-13T12:42:00.745Z,-4.80
2019-01-13T12:44:26.834Z,-4.77
2019-01-13T12:46:53.035Z,-4.74
2019-01-13T12:49:19.060Z,-4.70
2019-01-13T12:51:45.177Z,-4.67
2019-01-13T12:54:11.441Z,-4.65
2019-01-13T12:56:37.349Z,-4.61
2019-01-13T12:59:03.549Z,-4.58
2019-01-13T13:01:29.845Z,-4.55
2019-01-13T13:03:55.744Z,-4.44
2019-01-13T13:06:21.713Z,-4.42
2019-01-13T13:08:47.963Z,-4.40
2019-01-13T13:11:14.095Z,-4.36
2019-01-13T13:13:40.145Z,-4.35
2019-01-13T13:16:06.480Z,-4.29
2019-01-13T13:18:32.395Z,-4.26
2019-01-13T13:20:58.398Z,-4.21
2019-01-13T13:23:24.659Z,-4.19
2019-01-13T13:25:50.658Z,-4.46
2019-01-13T13:28:16.789Z,-4.11
2019-01-13T13:30:43.044Z,-4.08
2019-01-13T13:33:09.027Z,-4.03
2019-01-13T13:35:39.603Z,-4.02
2019-01-13T13:38:04.135Z,-3.96
2019-01-13T13:40:30.240Z,-3.93
2019-01-13T13:42:56.263Z,-3.89
2019-01-13T13:45:22.515Z,-3.86
2019-01-13T13:47:48.709Z,-3.82
2019-01-13T13:50:20.582Z,-3.72
2019-01-13T13:52:46.847Z,-3.69
2019-01-13T13:55:12.943Z,-3.65
2019-01-13T13:57:38.966Z,-3.62
2019-01-13T14:00:17.437Z,-3.58
2019-01-13T14:02:43.454Z,-3.55
2019-01-13T14:05:09.460Z,-3.50
2019-01-13T14:07:35.732Z,-3.45
2019-01-13T14:10:03.384Z,-3.42
2019-01-13T14:12:29.415Z,-3.36
2019-01-13T14:14:55.571Z,-3.30
2019-01-13T14:17:21.528Z,-3.21
2019-01-13T14:19:47.447Z,-3.12
2019-01-13T14:22:13.608Z,-3.08
2019-01-13T14:24:39.645Z,-3.02
2019-01-13T14:27:05.540Z,-3.00
2019-01-13T14:29:31.718Z,-3.01
2019-01-13T14:31:57.630Z,-3.00
2019-01-13T14:34:23.550Z,-2.97
2019-01-13T14:36:49.745Z,-2.95
2019-01-13T14:39:15.747Z,-2.94
2019-01-13T14:41:41.877Z,-2.92
2019-01-13T14:44:07.967Z,-2.89
2019-01-13T14:46:34.910Z,-2.87
2019-01-13T14:49:00.930Z,-2.81
2019-01-13T14:51:27.004Z,-2.81
2019-01-13T14:53:53.044Z,-2.77
2019-01-13T14:56:18.933Z,-2.77
2019-01-13T14:58:45.129Z,-2.75
2019-01-13T15:01:11.041Z,-2.72
2019-01-13T15:03:36.944Z,-2.70
2019-01-13T15:06:03.305Z,-2.68
2019-01-13T15:08:29.268Z,-2.67
2019-01-13T15:10:55.265Z,-2.65
2019-01-13T15:13:21.254Z,-2.61
2019-01-13T15:15:47.202Z,-2.58
2019-01-13T15:18:13.099Z,-2.55
2019-01-13T15:20:39.189Z,-2.52
2019-01-13T15:23:05.322Z,-2.49
2019-01-13T15:25:31.351Z,-2.45
2019-01-13T15:27:57.754Z,-2.40
2019-01-13T15:30:29.433Z,-2.37
2019-01-13T15:32:55.432Z,-2.48
2019-01-13T15:35:21.622Z,-2.28
2019-01-13T15:37:47.735Z,-2.21
2019-01-13T15:40:15.969Z,-2.16
2019-01-13T15:42:42.352Z,-2.10
2019-01-13T15:45:10.306Z,-2.06
2019-01-13T15:47:36.435Z,-2.00
2019-01-13T15:50:05.611Z,-1.93
2019-01-13T15:52:31.539Z,-1.88
2019-01-13T15:54:57.555Z,-1.81
2019-01-13T15:57:25.359Z,-1.77
2019-01-13T15:59:51.352Z,-1.70
2019-01-13T16:02:17.350Z,-1.62
2019-01-13T16:04:43.472Z,-1.53
2019-01-13T16:07:09.408Z,-1.44
2019-01-13T16:09:35.346Z,-1.32
2019-01-13T16:12:01.489Z,-1.21
2019-01-13T16:14:27.468Z,-1.11
2019-01-13T16:16:53.474Z,-1.02
2019-01-13T16:19:19.686Z,-0.93
2019-01-13T16:21:45.630Z,-0.84
2019-01-13T16:24:11.552Z,-0.77
2019-01-13T16:26:37.752Z,-0.70
2019-01-13T16:29:03.783Z,-0.62
2019-01-13T16:31:29.916Z,-0.50
2019-01-13T16:33:56.082Z,-0.43
2019-01-13T16:36:22.005Z,-0.35
2019-01-13T16:38:48.104Z,-0.28
2019-01-13T16:41:14.283Z,-0.22
2019-01-13T16:43:40.365Z,-0.16
2019-01-13T16:46:06.512Z,-0.11
2019-01-13T16:48:32.831Z,-0.05
2019-01-13T16:50:58.860Z,0.02
2019-01-13T16:53:24.881Z,0.07
2019-01-13T16:55:50.944Z,0.12
2019-01-13T16:58:17.067Z,0.17
2019-01-13T17:00:43.260Z,0.22
2019-01-13T17:03:09.428Z,0.27
2019-01-13T17:05:35.460Z,0.31
2019-01-13T17:08:01.480Z,0.35
2019-01-13T17:10:27.622Z,0.38
2019-01-13T17:12:53.751Z,0.42
2019-01-13T17:15:25.345Z,0.45
2019-01-13T17:17:51.385Z,0.49
2019-01-13T17:20:19.348Z,0.53
2019-01-13T17:22:45.326Z,0.56
2019-01-13T17:25:17.046Z,0.59
2019-01-13T17:27:43.087Z,0.62
2019-01-13T17:30:18.977Z,0.65
2019-01-13T17:32:44.964Z,0.68
2019-01-13T17:35:10.984Z,0.70
2019-01-13T17:37:37.122Z,0.72
2019-01-13T17:40:09.376Z,0.76
2019-01-13T17:42:35.317Z,0.77
2019-01-13T17:45:01.567Z,0.81
2019-01-13T17:47:27.450Z,0.83
2019-01-13T17:49:53.387Z,0.85
2019-01-13T17:52:19.557Z,0.87
2019-01-13T17:54:45.552Z,0.91
2019-01-13T17:57:11.456Z,0.93
2019-01-13T17:59:37.642Z,0.94
2019-01-13T18:02:03.664Z,0.97
2019-01-13T18:04:29.790Z,0.97
2019-01-13T18:06:55.834Z,0.99
2019-01-13T18:09:21.737Z,1.00
2019-01-13T18:11:47.742Z,1.00
2019-01-13T18:14:19.257Z,0.98
2019-01-13T18:16:45.218Z,0.98
2019-01-13T18:19:11.251Z,0.87
2019-01-13T18:21:37.359Z,0.98
2019-01-13T18:24:03.468Z,0.95
2019-01-13T18:26:29.501Z,0.88
2019-01-13T18:28:55.809Z,0.83
2019-01-13T18:31:21.838Z,0.80
2019-01-13T18:33:47.851Z,0.78
2019-01-13T18:36:13.940Z,0.75
2019-01-13T18:38:39.866Z,0.74
2019-01-13T18:41:05.990Z,0.71
2019-01-13T18:43:32.994Z,0.71
2019-01-13T18:45:58.924Z,0.69
2019-01-13T18:48:24.908Z,0.68
2019-01-13T18:50:51.189Z,0.68
2019-01-13T18:53:17.187Z,0.69
2019-01-13T18:55:43.325Z,0.70
2019-01-13T18:58:09.597Z,0.72
2019-01-13T19:00:35.634Z,0.73
2019-01-13T19:03:01.530Z,0.73
2019-01-13T19:05:28.224Z,0.75
2019-01-13T19:07:54.356Z,0.77
2019-01-13T19:10:42.182Z,0.76
2019-01-13T19:13:26.853Z,0.75
2019-01-13T19:15:55.749Z,0.73
2019-01-13T19:18:21.841Z,0.71
2019-01-13T19:20:47.869Z,0.71
2019-01-13T19:23:14.043Z,0.70
2019-01-13T19:25:39.970Z,0.67
2019-01-13T19:28:05.968Z,0.64
2019-01-13T19:30:32.353Z,0.63
2019-01-13T19:32:58.470Z,0.58
2019-01-13T19:35:24.566Z,0.54
2019-01-13T19:37:50.802Z,0.52
2019-01-13T19:40:17.136Z,0.49
2019-01-13T19:42:43.339Z,0.46
2019-01-13T19:45:13.060Z,0.42
2019-01-13T19:47:38.957Z,0.40
2019-01-13T19:50:11.037Z,0.39
2019-01-13T19:52:37.130Z,0.37
2019-01-13T19:55:06.632Z,0.32
2019-01-13T19:57:32.636Z,0.27
2019-01-13T19:59:58.705Z,0.19
2019-01-13T20:02:24.721Z,0.12
2019-01-13T20:04:50.644Z,0.03
2019-01-13T20:07:16.698Z,-0.06
2019-01-13T20:09:42.746Z,-0.12
2019-01-13T20:12:08.742Z,-0.16
2019-01-13T20:14:35.028Z,-0.20
2019-01-13T20:17:01.037Z,-0.25
2019-01-13T20:19:26.998Z,-0.27
2019-01-13T20:21:52.981Z,-0.31
2019-01-13T20:24:18.913Z,-0.34
2019-01-13T20:26:45.037Z,-0.36
2019-01-13T20:29:11.112Z,-0.39
2019-01-13T20:31:37.030Z,-0.44
2019-01-13T20:34:03.168Z,-0.47
2019-01-13T20:36:29.274Z,-0.52
2019-01-13T20:38:55.210Z,-0.58
2019-01-13T20:41:21.233Z,-0.63
2019-01-13T20:43:47.304Z,-0.68
2019-01-13T20:46:13.231Z,-0.71
2019-01-13T20:48:39.133Z,-0.75
2019-01-13T20:51:05.240Z,-0.76
2019-01-13T20:53:31.132Z,-0.79
2019-01-13T20:55:57.085Z,-0.82
2019-01-13T20:58:23.229Z,-0.83
2019-01-13T21:00:49.231Z,-0.83
2019-01-13T21:03:15.176Z,-0.85
2019-01-13T21:05:41.354Z,-0.89
2019-01-13T21:08:07.480Z,-0.93
2019-01-13T21:10:33.680Z,-0.97
2019-01-13T21:12:59.749Z,-1.04
2019-01-13T21:15:29.572Z,-1.13
2019-01-13T21:17:57.724Z,-1.21
2019-01-13T21:20:23.734Z,-1.29
2019-01-13T21:22:49.750Z,-1.35
2019-01-13T21:25:16.567Z,-1.43
2019-01-13T21:27:43.180Z,-1.52
2019-01-13T21:30:12.883Z,-1.62
2019-01-13T21:32:38.777Z,-1.73
2019-01-13T21:35:07.367Z,-1.80
2019-01-13T21:37:33.316Z,-1.84
2019-01-13T21:39:59.226Z,-1.91
2019-01-13T21:42:25.322Z,-1.92
2019-01-13T21:44:51.254Z,-1.95
2019-01-13T21:47:17.262Z,-2.00
2019-01-13T21:49:43.451Z,-2.02
2019-01-13T21:52:09.362Z,-2.05
2019-01-13T21:54:35.306Z,-2.10
2019-01-13T21:57:01.453Z,-2.09
2019-01-13T21:59:27.365Z,-2.11
2019-01-13T22:01:53.389Z,-2.15
2019-01-13T22:04:19.381Z,-2.20
2019-01-13T22:06:45.312Z,-2.25
2019-01-13T22:09:11.458Z,-2.29
2019-01-13T22:11:37.703Z,-2.36
2019-01-13T22:14:03.724Z,-2.42
2019-01-13T22:16:29.635Z,-2.50
2019-01-13T22:18:55.914Z,-2.51
2019-01-13T22:21:21.813Z,-2.57
2019-01-13T22:23:47.826Z,-2.61
2019-01-13T22:26:14.027Z,-2.68
2019-01-13T22:28:39.920Z,-2.74
2019-01-13T22:31:05.852Z,-2.81
2019-01-13T22:33:31.899Z,-2.87
2019-01-13T22:35:57.936Z,-2.93
2019-01-13T22:38:23.991Z,-3.03
2019-01-13T22:40:49.999Z,-3.03
2019-01-13T22:43:16.010Z,-3.08
2019-01-13T22:45:41.908Z,-3.11
2019-01-13T22:48:08.334Z,-3.14
2019-01-13T22:50:34.263Z,-3.17
2019-01-13T22:53:00.166Z,-3.21
2019-01-13T22:55:26.293Z,-3.27
2019-01-13T22:57:52.324Z,-3.33
2019-01-13T23:00:48.162Z,-3.33
2019-01-13T23:03:14.188Z,-3.37
2019-01-13T23:05:40.263Z,-3.40
2019-01-13T23:08:06.565Z,-3.43
2019-01-13T23:10:32.604Z,-3.47
2019-01-13T23:12:58.588Z,-3.53
2019-01-13T23:15:24.784Z,-3.57
2019-01-13T23:17:50.719Z,-3.61
2019-01-13T23:20:16.879Z,-3.63
2019-01-13T23:22:43.108Z,-3.65
2019-01-13T23:25:09.074Z,-3.70
2019-01-13T23:27:34.999Z,-3.73
2019-01-13T23:30:01.273Z,-3.78
2019-01-13T23:32:27.260Z,-3.82
2019-01-13T23:34:53.164Z,-3.87
2019-01-13T23:37:19.560Z,-3.89
2019-01-13T23:39:45.474Z,-3.89
2019-01-13T23:42:11.511Z,-3.91
2019-01-13T23:44:37.625Z,-3.92
2019-01-13T23:47:03.752Z,-3.94
2019-01-13T23:49:29.876Z,-3.98
2019-01-13T23:51:56.053Z,-3.98
2019-01-13T23:54:22.181Z,-4.00
2019-01-13T23:56:48.150Z,-4.02
2019-01-13T23:59:14.216Z,-4.05
